sensor_id;sensor_type;location;lat;lon;timestamp;temperature;humidity
14397;DHT22;50653;47.810;13.022;2023-03-31T00:00:43;10.00;99.90
14397;DHT22;50653;47.810;13.022;2023-03-31T00:03:09;9.90;99.90
14397;DHT22;50653;47.810;13.022;2023-03-31T00:05:57;9.90;99.90
14397;DHT22;50653;47.810;13.022;2023-03-31T00:08:24;9.90;99.90
14397;DHT22;50653;47.810;13.022;2023-03-31T00:10:58;9.90;99.90
14397;DHT22;50653;47.810;13.022;2023-03-31T00:13:25;9.90;99.90
14397;DHT22;50653;47.810;13.022;2023-03-31T00:16:00;9.80;99.90
14397;DHT22;50653;47.810;13.022;2023-03-31T00:18:26;9.80;99.90
14397;DHT22;50653;47.810;13.022;2023-03-31T00:20:53;9.80;99.90
14397;DHT22;50653;47.810;13.022;2023-03-31T00:23:19;9.80;99.90
14397;DHT22;50653;47.810;13.022;2023-03-31T00:25:54;9.70;99.90
14397;DHT22;50653;47.810;13.022;2023-03-31T00:28:21;9.80;99.90
14397;DHT22;50653;47.810;13.022;2023-03-31T00:30:47;9.90;99.90
14397;DHT22;50653;47.810;13.022;2023-03-31T00:33:13;9.70;99.90
14397;DHT22;50653;47.810;13.022;2023-03-31T00:35:38;9.60;99.90
14397;DHT22;50653;47.810;13.022;2023-03-31T00:38:05;9.60;99.90
14397;DHT22;50653;47.810;13.022;2023-03-31T00:40:34;9.50;99.90
14397;DHT22;50653;47.810;13.022;2023-03-31T00:43:00;9.50;99.90
14397;DHT22;50653;47.810;13.022;2023-03-31T00:45:29;9.50;99.90
14397;DHT22;50653;47.810;13.022;2023-03-31T00:48:05;9.40;99.90
14397;DHT22;50653;47.810;13.022;2023-03-31T00:50:40;9.40;99.90
14397;DHT22;50653;47.810;13.022;2023-03-31T00:53:11;9.50;99.90
14397;DHT22;50653;47.810;13.022;2023-03-31T00:55:51;9.40;99.90
14397;DHT22;50653;47.810;13.022;2023-03-31T00:58:19;9.50;99.90
14397;DHT22;50653;47.810;13.022;2023-03-31T01:00:46;9.50;99.90
14397;DHT22;50653;47.810;13.022;2023-03-31T01:03:14;9.50;99.90
14397;DHT22;50653;47.810;13.022;2023-03-31T01:06:07;9.40;99.90
14397;DHT22;50653;47.810;13.022;2023-03-31T01:08:36;9.50;99.90
14397;DHT22;50653;47.810;13.022;2023-03-31T01:11:05;9.40;99.90
14397;DHT22;50653;47.810;13.022;2023-03-31T01:13:36;9.30;99.90
14397;DHT22;50653;47.810;13.022;2023-03-31T01:16:03;9.30;99.90
14397;DHT22;50653;47.810;13.022;2023-03-31T01:18:29;9.30;99.90
14397;DHT22;50653;47.810;13.022;2023-03-31T01:21:33;9.20;99.90
14397;DHT22;50653;47.810;13.022;2023-03-31T01:35:09;9.20;99.90
14397;DHT22;50653;47.810;13.022;2023-03-31T01:43:32;9.30;99.90
14397;DHT22;50653;47.810;13.022;2023-03-31T01:46:24;9.20;99.90
14397;DHT22;50653;47.810;13.022;2023-03-31T01:49:22;9.10;99.90
14397;DHT22;50653;47.810;13.022;2023-03-31T01:52:05;9.10;99.90
14397;DHT22;50653;47.810;13.022;2023-03-31T01:57:29;9.20;99.90
14397;DHT22;50653;47.810;13.022;2023-03-31T02:00:09;9.10;99.90
14397;DHT22;50653;47.810;13.022;2023-03-31T02:02:47;9.10;99.90
14397;DHT22;50653;47.810;13.022;2023-03-31T02:05:21;9.20;99.90
14397;DHT22;50653;47.810;13.022;2023-03-31T02:07:53;9.20;99.90
14397;DHT22;50653;47.810;13.022;2023-03-31T02:10:22;9.20;99.90
14397;DHT22;50653;47.810;13.022;2023-03-31T02:12:49;9.20;99.90
14397;DHT22;50653;47.810;13.022;2023-03-31T02:15:25;9.20;99.90
14397;DHT22;50653;47.810;13.022;2023-03-31T02:17:55;9.10;99.90
14397;DHT22;50653;47.810;13.022;2023-03-31T02:20:25;9.20;99.90
14397;DHT22;50653;47.810;13.022;2023-03-31T02:22:54;9.20;99.90
14397;DHT22;50653;47.810;13.022;2023-03-31T02:25:32;9.20;99.90
14397;DHT22;50653;47.810;13.022;2023-03-31T02:28:03;9.20;99.90
14397;DHT22;50653;47.810;13.022;2023-03-31T02:33:18;9.20;99.90
14397;DHT22;50653;47.810;13.022;2023-03-31T02:35:43;9.20;99.90
14397;DHT22;50653;47.810;13.022;2023-03-31T02:38:09;9.20;99.90
14397;DHT22;50653;47.810;13.022;2023-03-31T02:40:36;9.20;99.90
14397;DHT22;50653;47.810;13.022;2023-03-31T02:43:02;9.20;99.90
14397;DHT22;50653;47.810;13.022;2023-03-31T02:45:46;9.20;99.90
14397;DHT22;50653;47.810;13.022;2023-03-31T02:48:26;9.20;99.90
14397;DHT22;50653;47.810;13.022;2023-03-31T02:51:12;9.30;99.90
14397;DHT22;50653;47.810;13.022;2023-03-31T02:54:03;9.30;99.90
14397;DHT22;50653;47.810;13.022;2023-03-31T03:09:07;9.20;99.90
14397;DHT22;50653;47.810;13.022;2023-03-31T03:12:19;9.20;99.90
14397;DHT22;50653;47.810;13.022;2023-03-31T03:14:59;9.20;99.90
14397;DHT22;50653;47.810;13.022;2023-03-31T03:17:42;9.20;99.90
14397;DHT22;50653;47.810;13.022;2023-03-31T03:20:09;9.20;99.90
14397;DHT22;50653;47.810;13.022;2023-03-31T03:22:36;9.20;99.90
14397;DHT22;50653;47.810;13.022;2023-03-31T03:25:06;9.10;99.90
14397;DHT22;50653;47.810;13.022;2023-03-31T03:27:34;9.00;99.90
14397;DHT22;50653;47.810;13.022;2023-03-31T03:30:01;9.10;99.90
14397;DHT22;50653;47.810;13.022;2023-03-31T03:32:28;9.10;99.90
14397;DHT22;50653;47.810;13.022;2023-03-31T03:34:54;9.10;99.90
14397;DHT22;50653;47.810;13.022;2023-03-31T03:37:19;9.10;99.90
14397;DHT22;50653;47.810;13.022;2023-03-31T03:39:45;9.00;99.90
14397;DHT22;50653;47.810;13.022;2023-03-31T03:42:11;9.00;99.90
14397;DHT22;50653;47.810;13.022;2023-03-31T03:44:37;9.00;99.90
14397;DHT22;50653;47.810;13.022;2023-03-31T03:47:02;9.00;99.90
14397;DHT22;50653;47.810;13.022;2023-03-31T03:49:28;9.00;99.90
14397;DHT22;50653;47.810;13.022;2023-03-31T03:51:54;9.10;99.90
14397;DHT22;50653;47.810;13.022;2023-03-31T03:54:20;9.10;99.90
14397;DHT22;50653;47.810;13.022;2023-03-31T03:56:45;9.10;99.90
14397;DHT22;50653;47.810;13.022;2023-03-31T03:59:11;9.10;99.90
14397;DHT22;50653;47.810;13.022;2023-03-31T04:01:37;9.10;99.90
14397;DHT22;50653;47.810;13.022;2023-03-31T04:04:03;9.00;99.90
14397;DHT22;50653;47.810;13.022;2023-03-31T04:06:29;9.10;99.90
14397;DHT22;50653;47.810;13.022;2023-03-31T04:08:55;9.10;99.90
14397;DHT22;50653;47.810;13.022;2023-03-31T04:11:21;9.00;99.90
14397;DHT22;50653;47.810;13.022;2023-03-31T04:13:47;9.00;99.90
14397;DHT22;50653;47.810;13.022;2023-03-31T04:16:13;9.00;99.90
14397;DHT22;50653;47.810;13.022;2023-03-31T04:18:38;9.00;99.90
14397;DHT22;50653;47.810;13.022;2023-03-31T04:21:14;8.90;99.90
14397;DHT22;50653;47.810;13.022;2023-03-31T04:23:48;8.90;99.90
14397;DHT22;50653;47.810;13.022;2023-03-31T04:26:17;8.90;99.90
14397;DHT22;50653;47.810;13.022;2023-03-31T04:28:51;9.00;99.90
14397;DHT22;50653;47.810;13.022;2023-03-31T04:31:16;9.00;99.90
14397;DHT22;50653;47.810;13.022;2023-03-31T04:33:52;9.00;99.90
14397;DHT22;50653;47.810;13.022;2023-03-31T04:36:17;9.00;99.90
14397;DHT22;50653;47.810;13.022;2023-03-31T04:38:44;9.10;99.90
14397;DHT22;50653;47.810;13.022;2023-03-31T04:41:18;9.00;99.90
14397;DHT22;50653;47.810;13.022;2023-03-31T04:43:44;9.00;99.90
14397;DHT22;50653;47.810;13.022;2023-03-31T04:46:09;9.10;99.90
14397;DHT22;50653;47.810;13.022;2023-03-31T04:48:35;9.10;99.90
14397;DHT22;50653;47.810;13.022;2023-03-31T04:51:01;9.10;99.90
14397;DHT22;50653;47.810;13.022;2023-03-31T04:53:27;9.10;99.90
14397;DHT22;50653;47.810;13.022;2023-03-31T04:55:53;9.10;99.90
14397;DHT22;50653;47.810;13.022;2023-03-31T04:58:18;9.10;99.90
14397;DHT22;50653;47.810;13.022;2023-03-31T05:00:44;9.10;99.90
14397;DHT22;50653;47.810;13.022;2023-03-31T05:03:10;9.10;99.90
14397;DHT22;50653;47.810;13.022;2023-03-31T05:05:36;9.10;99.90
14397;DHT22;50653;47.810;13.022;2023-03-31T05:08:03;9.20;99.90
14397;DHT22;50653;47.810;13.022;2023-03-31T05:10:29;9.20;99.90
14397;DHT22;50653;47.810;13.022;2023-03-31T05:12:55;9.20;99.90
14397;DHT22;50653;47.810;13.022;2023-03-31T05:15:21;9.20;99.90
14397;DHT22;50653;47.810;13.022;2023-03-31T05:17:49;9.10;99.90
14397;DHT22;50653;47.810;13.022;2023-03-31T05:20:15;9.10;99.90
14397;DHT22;50653;47.810;13.022;2023-03-31T05:22:41;9.10;99.90
14397;DHT22;50653;47.810;13.022;2023-03-31T05:25:08;9.10;99.90
14397;DHT22;50653;47.810;13.022;2023-03-31T05:27:36;9.10;99.90
14397;DHT22;50653;47.810;13.022;2023-03-31T05:30:03;9.10;99.90
14397;DHT22;50653;47.810;13.022;2023-03-31T05:32:29;9.10;99.90
14397;DHT22;50653;47.810;13.022;2023-03-31T05:34:55;9.10;99.90
14397;DHT22;50653;47.810;13.022;2023-03-31T05:37:23;9.20;99.90
14397;DHT22;50653;47.810;13.022;2023-03-31T05:39:49;9.20;99.90
14397;DHT22;50653;47.810;13.022;2023-03-31T05:42:15;9.20;99.90
14397;DHT22;50653;47.810;13.022;2023-03-31T05:44:41;9.20;99.90
14397;DHT22;50653;47.810;13.022;2023-03-31T05:47:07;9.10;99.90
14397;DHT22;50653;47.810;13.022;2023-03-31T05:49:33;9.10;99.90
14397;DHT22;50653;47.810;13.022;2023-03-31T05:51:58;9.10;99.90
14397;DHT22;50653;47.810;13.022;2023-03-31T05:54:25;9.20;99.90
14397;DHT22;50653;47.810;13.022;2023-03-31T05:56:51;9.10;99.90
14397;DHT22;50653;47.810;13.022;2023-03-31T05:59:17;9.20;99.90
14397;DHT22;50653;47.810;13.022;2023-03-31T06:01:43;9.30;99.90
14397;DHT22;50653;47.810;13.022;2023-03-31T06:04:09;9.30;99.90
14397;DHT22;50653;47.810;13.022;2023-03-31T06:06:34;9.30;99.90
14397;DHT22;50653;47.810;13.022;2023-03-31T06:09:03;9.30;99.90
14397;DHT22;50653;47.810;13.022;2023-03-31T06:11:29;9.30;99.90
14397;DHT22;50653;47.810;13.022;2023-03-31T06:13:55;9.30;99.90
14397;DHT22;50653;47.810;13.022;2023-03-31T06:16:21;9.30;99.90
14397;DHT22;50653;47.810;13.022;2023-03-31T06:18:47;9.30;99.90
14397;DHT22;50653;47.810;13.022;2023-03-31T06:21:17;9.40;99.90
14397;DHT22;50653;47.810;13.022;2023-03-31T06:23:43;9.40;99.90
14397;DHT22;50653;47.810;13.022;2023-03-31T06:26:12;9.40;99.90
14397;DHT22;50653;47.810;13.022;2023-03-31T06:28:38;9.50;99.90
14397;DHT22;50653;47.810;13.022;2023-03-31T06:31:06;9.50;99.90
14397;DHT22;50653;47.810;13.022;2023-03-31T06:33:32;9.40;99.90
14397;DHT22;50653;47.810;13.022;2023-03-31T06:35:59;9.40;99.90
14397;DHT22;50653;47.810;13.022;2023-03-31T06:38:27;9.50;99.90
14397;DHT22;50653;47.810;13.022;2023-03-31T06:40:53;9.40;99.90
14397;DHT22;50653;47.810;13.022;2023-03-31T06:43:19;9.40;99.90
14397;DHT22;50653;47.810;13.022;2023-03-31T06:45:45;9.40;99.90
14397;DHT22;50653;47.810;13.022;2023-03-31T06:48:11;9.50;99.90
14397;DHT22;50653;47.810;13.022;2023-03-31T06:50:38;9.50;99.90
14397;DHT22;50653;47.810;13.022;2023-03-31T06:53:04;9.50;99.90
14397;DHT22;50653;47.810;13.022;2023-03-31T06:55:30;9.60;99.90
14397;DHT22;50653;47.810;13.022;2023-03-31T06:57:56;9.50;99.90
14397;DHT22;50653;47.810;13.022;2023-03-31T07:00:22;9.60;99.90
14397;DHT22;50653;47.810;13.022;2023-03-31T07:02:50;9.60;99.90
14397;DHT22;50653;47.810;13.022;2023-03-31T07:05:16;9.60;99.90
14397;DHT22;50653;47.810;13.022;2023-03-31T07:07:43;9.60;99.90
14397;DHT22;50653;47.810;13.022;2023-03-31T07:10:08;9.70;99.90
14397;DHT22;50653;47.810;13.022;2023-03-31T07:12:34;9.70;99.90
14397;DHT22;50653;47.810;13.022;2023-03-31T07:15:00;9.80;99.90
14397;DHT22;50653;47.810;13.022;2023-03-31T07:17:26;9.80;99.90
14397;DHT22;50653;47.810;13.022;2023-03-31T07:19:51;9.80;99.90
14397;DHT22;50653;47.810;13.022;2023-03-31T07:22:17;9.90;99.90
14397;DHT22;50653;47.810;13.022;2023-03-31T07:24:43;10.00;99.90
14397;DHT22;50653;47.810;13.022;2023-03-31T07:27:09;10.10;99.90
14397;DHT22;50653;47.810;13.022;2023-03-31T07:29:34;10.10;99.90
14397;DHT22;50653;47.810;13.022;2023-03-31T07:32:00;10.20;99.90
14397;DHT22;50653;47.810;13.022;2023-03-31T07:34:26;10.20;99.90
14397;DHT22;50653;47.810;13.022;2023-03-31T07:36:54;10.20;99.90
14397;DHT22;50653;47.810;13.022;2023-03-31T07:39:20;10.20;99.90
14397;DHT22;50653;47.810;13.022;2023-03-31T07:41:46;10.30;99.90
14397;DHT22;50653;47.810;13.022;2023-03-31T07:44:12;10.40;99.90
14397;DHT22;50653;47.810;13.022;2023-03-31T07:46:38;10.40;99.90
14397;DHT22;50653;47.810;13.022;2023-03-31T07:49:04;10.40;99.90
14397;DHT22;50653;47.810;13.022;2023-03-31T07:51:33;10.60;99.90
14397;DHT22;50653;47.810;13.022;2023-03-31T07:53:59;10.60;99.90
14397;DHT22;50653;47.810;13.022;2023-03-31T07:56:25;10.70;99.90
14397;DHT22;50653;47.810;13.022;2023-03-31T07:58:53;10.70;99.90
14397;DHT22;50653;47.810;13.022;2023-03-31T08:01:22;10.70;99.90
14397;DHT22;50653;47.810;13.022;2023-03-31T08:03:54;10.70;99.90
14397;DHT22;50653;47.810;13.022;2023-03-31T08:06:22;10.80;99.90
14397;DHT22;50653;47.810;13.022;2023-03-31T08:08:51;10.80;99.90
14397;DHT22;50653;47.810;13.022;2023-03-31T08:11:17;10.80;99.90
14397;DHT22;50653;47.810;13.022;2023-03-31T08:13:45;10.80;99.90
14397;DHT22;50653;47.810;13.022;2023-03-31T08:16:11;10.70;99.90
14397;DHT22;50653;47.810;13.022;2023-03-31T08:18:37;10.80;99.90
14397;DHT22;50653;47.810;13.022;2023-03-31T08:21:03;10.80;99.90
14397;DHT22;50653;47.810;13.022;2023-03-31T08:23:29;10.70;99.90
14397;DHT22;50653;47.810;13.022;2023-03-31T08:26:01;10.70;99.90
14397;DHT22;50653;47.810;13.022;2023-03-31T08:28:30;10.70;99.90
14397;DHT22;50653;47.810;13.022;2023-03-31T08:31:02;10.70;99.90
14397;DHT22;50653;47.810;13.022;2023-03-31T08:33:28;10.60;99.90
14397;DHT22;50653;47.810;13.022;2023-03-31T08:35:54;10.60;99.90
14397;DHT22;50653;47.810;13.022;2023-03-31T08:38:20;10.70;99.90
14397;DHT22;50653;47.810;13.022;2023-03-31T08:40:46;10.70;99.90
14397;DHT22;50653;47.810;13.022;2023-03-31T08:43:17;10.70;99.90
14397;DHT22;50653;47.810;13.022;2023-03-31T08:45:47;10.70;99.90
14397;DHT22;50653;47.810;13.022;2023-03-31T08:48:29;10.70;99.90
14397;DHT22;50653;47.810;13.022;2023-03-31T08:51:01;10.70;99.90
14397;DHT22;50653;47.810;13.022;2023-03-31T08:53:32;10.70;99.90
14397;DHT22;50653;47.810;13.022;2023-03-31T08:55:59;10.60;99.90
14397;DHT22;50653;47.810;13.022;2023-03-31T08:58:43;10.60;99.90
14397;DHT22;50653;47.810;13.022;2023-03-31T09:04:24;10.70;99.90
14397;DHT22;50653;47.810;13.022;2023-03-31T09:19:49;10.90;99.90
14397;DHT22;50653;47.810;13.022;2023-03-31T09:22:35;11.00;99.90
14397;DHT22;50653;47.810;13.022;2023-03-31T09:25:43;11.00;99.90
14397;DHT22;50653;47.810;13.022;2023-03-31T09:28:20;11.10;99.90
14397;DHT22;50653;47.810;13.022;2023-03-31T09:30:47;11.20;99.90
14397;DHT22;50653;47.810;13.022;2023-03-31T09:33:26;11.20;99.90
14397;DHT22;50653;47.810;13.022;2023-03-31T09:35:57;11.20;99.90
14397;DHT22;50653;47.810;13.022;2023-03-31T09:38:23;11.30;99.90
14397;DHT22;50653;47.810;13.022;2023-03-31T09:40:49;11.20;99.90
14397;DHT22;50653;47.810;13.022;2023-03-31T09:43:35;11.20;99.90
14397;DHT22;50653;47.810;13.022;2023-03-31T09:46:01;11.20;99.90
14397;DHT22;50653;47.810;13.022;2023-03-31T09:48:31;11.30;99.90
14397;DHT22;50653;47.810;13.022;2023-03-31T09:51:02;11.30;99.90
14397;DHT22;50653;47.810;13.022;2023-03-31T09:53:39;11.30;99.90
14397;DHT22;50653;47.810;13.022;2023-03-31T09:56:07;11.30;99.90
14397;DHT22;50653;47.810;13.022;2023-03-31T09:58:44;11.20;99.90
14397;DHT22;50653;47.810;13.022;2023-03-31T10:01:12;11.20;99.90
14397;DHT22;50653;47.810;13.022;2023-03-31T10:03:52;11.20;99.90
14397;DHT22;50653;47.810;13.022;2023-03-31T10:06:19;11.20;99.90
14397;DHT22;50653;47.810;13.022;2023-03-31T10:08:54;11.20;99.90
14397;DHT22;50653;47.810;13.022;2023-03-31T10:11:21;11.10;99.90
14397;DHT22;50653;47.810;13.022;2023-03-31T10:14:14;11.10;99.90
14397;DHT22;50653;47.810;13.022;2023-03-31T10:16:49;11.10;99.90
14397;DHT22;50653;47.810;13.022;2023-03-31T10:19:31;11.20;99.90
14397;DHT22;50653;47.810;13.022;2023-03-31T10:22:01;11.20;99.90
14397;DHT22;50653;47.810;13.022;2023-03-31T10:24:36;11.20;99.90
14397;DHT22;50653;47.810;13.022;2023-03-31T10:27:05;11.20;99.90
14397;DHT22;50653;47.810;13.022;2023-03-31T10:29:33;11.20;99.90
14397;DHT22;50653;47.810;13.022;2023-03-31T10:32:23;11.20;99.90
14397;DHT22;50653;47.810;13.022;2023-03-31T10:34:50;11.30;99.90
14397;DHT22;50653;47.810;13.022;2023-03-31T10:37:22;11.30;99.90
14397;DHT22;50653;47.810;13.022;2023-03-31T10:39:56;11.30;99.90
14397;DHT22;50653;47.810;13.022;2023-03-31T10:42:24;11.30;99.90
14397;DHT22;50653;47.810;13.022;2023-03-31T10:47:40;11.20;99.90
14397;DHT22;50653;47.810;13.022;2023-03-31T10:50:13;11.20;99.90
14397;DHT22;50653;47.810;13.022;2023-03-31T10:52:45;11.30;99.90
14397;DHT22;50653;47.810;13.022;2023-03-31T10:55:22;11.30;99.90
14397;DHT22;50653;47.810;13.022;2023-03-31T10:57:57;11.30;99.90
14397;DHT22;50653;47.810;13.022;2023-03-31T11:00:34;11.30;99.90
14397;DHT22;50653;47.810;13.022;2023-03-31T11:05:59;11.40;99.90
14397;DHT22;50653;47.810;13.022;2023-03-31T11:08:40;11.50;99.90
14397;DHT22;50653;47.810;13.022;2023-03-31T11:19:50;11.70;99.90
14397;DHT22;50653;47.810;13.022;2023-03-31T11:22:21;11.70;99.90
14397;DHT22;50653;47.810;13.022;2023-03-31T11:25:18;11.60;99.90
14397;DHT22;50653;47.810;13.022;2023-03-31T11:35:58;11.60;99.90
14397;DHT22;50653;47.810;13.022;2023-03-31T11:41:40;11.60;99.90
14397;DHT22;50653;47.810;13.022;2023-03-31T11:44:11;11.70;99.90
14397;DHT22;50653;47.810;13.022;2023-03-31T11:46:54;11.60;99.90
14397;DHT22;50653;47.810;13.022;2023-03-31T11:49:29;11.70;99.90
14397;DHT22;50653;47.810;13.022;2023-03-31T11:52:02;11.80;99.90
14397;DHT22;50653;47.810;13.022;2023-03-31T11:54:40;11.80;99.90
14397;DHT22;50653;47.810;13.022;2023-03-31T11:57:18;11.70;99.90
14397;DHT22;50653;47.810;13.022;2023-03-31T11:59:49;11.70;99.90
14397;DHT22;50653;47.810;13.022;2023-03-31T12:02:31;11.70;99.90
14397;DHT22;50653;47.810;13.022;2023-03-31T12:05:02;11.70;99.90
14397;DHT22;50653;47.810;13.022;2023-03-31T12:07:33;11.80;99.90
14397;DHT22;50653;47.810;13.022;2023-03-31T12:12:42;11.90;99.90
14397;DHT22;50653;47.810;13.022;2023-03-31T12:17:51;11.90;99.90
14397;DHT22;50653;47.810;13.022;2023-03-31T12:20:28;11.90;99.90
14397;DHT22;50653;47.810;13.022;2023-03-31T12:22:57;11.80;99.90
14397;DHT22;50653;47.810;13.022;2023-03-31T12:25:39;11.80;99.90
14397;DHT22;50653;47.810;13.022;2023-03-31T12:28:07;11.70;99.90
14397;DHT22;50653;47.810;13.022;2023-03-31T12:30:36;11.80;99.90
14397;DHT22;50653;47.810;13.022;2023-03-31T12:35:49;11.70;99.90
14397;DHT22;50653;47.810;13.022;2023-03-31T12:38:33;11.70;99.90
14397;DHT22;50653;47.810;13.022;2023-03-31T12:41:28;11.70;99.90
14397;DHT22;50653;47.810;13.022;2023-03-31T12:47:17;11.70;99.90
14397;DHT22;50653;47.810;13.022;2023-03-31T12:57:43;11.60;99.90
14397;DHT22;50653;47.810;13.022;2023-03-31T13:00:24;11.50;99.90
14397;DHT22;50653;47.810;13.022;2023-03-31T13:02:50;11.40;99.90
14397;DHT22;50653;47.810;13.022;2023-03-31T13:05:46;11.30;99.90
14397;DHT22;50653;47.810;13.022;2023-03-31T13:08:53;11.20;99.90
14397;DHT22;50653;47.810;13.022;2023-03-31T13:11:22;10.80;99.90
14397;DHT22;50653;47.810;13.022;2023-03-31T13:14:22;10.90;99.90
14397;DHT22;50653;47.810;13.022;2023-03-31T13:16:49;10.90;99.90
14397;DHT22;50653;47.810;13.022;2023-03-31T13:19:35;11.00;99.90
14397;DHT22;50653;47.810;13.022;2023-03-31T13:22:03;10.90;99.90
14397;DHT22;50653;47.810;13.022;2023-03-31T13:24:31;10.90;99.90
14397;DHT22;50653;47.810;13.022;2023-03-31T13:27:23;10.90;99.90
14397;DHT22;50653;47.810;13.022;2023-03-31T13:29:44;10.90;99.90
14397;DHT22;50653;47.810;13.022;2023-03-31T13:32:27;11.00;99.90
14397;DHT22;50653;47.810;13.022;2023-03-31T13:35:05;11.00;99.90
14397;DHT22;50653;47.810;13.022;2023-03-31T13:37:48;11.00;99.90
14397;DHT22;50653;47.810;13.022;2023-03-31T13:53:53;11.10;99.90
14397;DHT22;50653;47.810;13.022;2023-03-31T14:02:48;11.20;99.90
14397;DHT22;50653;47.810;13.022;2023-03-31T14:07:46;11.10;99.90
14397;DHT22;50653;47.810;13.022;2023-03-31T14:13:11;11.10;99.90
14397;DHT22;50653;47.810;13.022;2023-03-31T14:15:47;11.10;99.90
14397;DHT22;50653;47.810;13.022;2023-03-31T14:18:22;11.10;99.90
14397;DHT22;50653;47.810;13.022;2023-03-31T14:23:37;9.50;99.90
14397;DHT22;50653;47.810;13.022;2023-03-31T14:28:59;9.60;99.90
14397;DHT22;50653;47.810;13.022;2023-03-31T14:31:36;9.60;99.90
14397;DHT22;50653;47.810;13.022;2023-03-31T14:36:50;9.60;99.90
14397;DHT22;50653;47.810;13.022;2023-03-31T14:39:25;9.70;99.90
14397;DHT22;50653;47.810;13.022;2023-03-31T14:41:59;9.70;99.90
14397;DHT22;50653;47.810;13.022;2023-03-31T14:44:27;9.60;99.90
14397;DHT22;50653;47.810;13.022;2023-03-31T14:46:55;9.60;99.90
14397;DHT22;50653;47.810;13.022;2023-03-31T14:49:27;9.50;99.90
14397;DHT22;50653;47.810;13.022;2023-03-31T14:51:59;9.60;99.90
14397;DHT22;50653;47.810;13.022;2023-03-31T14:54:25;9.50;99.90
14397;DHT22;50653;47.810;13.022;2023-03-31T14:56:53;9.70;99.90
14397;DHT22;50653;47.810;13.022;2023-03-31T14:59:23;9.80;99.90
14397;DHT22;50653;47.810;13.022;2023-03-31T15:01:50;9.70;99.90
14397;DHT22;50653;47.810;13.022;2023-03-31T15:04:20;9.90;99.90
14397;DHT22;50653;47.810;13.022;2023-03-31T15:06:48;9.80;99.90
14397;DHT22;50653;47.810;13.022;2023-03-31T15:09:25;9.80;99.90
14397;DHT22;50653;47.810;13.022;2023-03-31T15:12:09;9.70;99.90
14397;DHT22;50653;47.810;13.022;2023-03-31T15:14:48;9.80;99.90
14397;DHT22;50653;47.810;13.022;2023-03-31T15:17:24;9.70;99.90
14397;DHT22;50653;47.810;13.022;2023-03-31T15:19:58;9.80;99.90
14397;DHT22;50653;47.810;13.022;2023-03-31T15:22:26;9.90;99.90
14397;DHT22;50653;47.810;13.022;2023-03-31T15:24:53;9.90;99.90
14397;DHT22;50653;47.810;13.022;2023-03-31T15:27:34;9.90;99.90
14397;DHT22;50653;47.810;13.022;2023-03-31T15:30:04;9.90;99.90
14397;DHT22;50653;47.810;13.022;2023-03-31T15:32:34;9.90;99.90
14397;DHT22;50653;47.810;13.022;2023-03-31T15:35:01;9.90;99.90
14397;DHT22;50653;47.810;13.022;2023-03-31T15:37:55;9.90;99.90
14397;DHT22;50653;47.810;13.022;2023-03-31T15:40:25;9.90;99.90
14397;DHT22;50653;47.810;13.022;2023-03-31T15:42:54;9.90;99.90
14397;DHT22;50653;47.810;13.022;2023-03-31T15:47:56;9.80;99.90
14397;DHT22;50653;47.810;13.022;2023-03-31T15:50:28;9.80;99.90
14397;DHT22;50653;47.810;13.022;2023-03-31T15:52:55;9.90;99.90
14397;DHT22;50653;47.810;13.022;2023-03-31T15:57:59;9.90;99.90
14397;DHT22;50653;47.810;13.022;2023-03-31T16:00:44;9.90;99.90
14397;DHT22;50653;47.810;13.022;2023-03-31T16:03:23;10.00;99.90
14397;DHT22;50653;47.810;13.022;2023-03-31T16:05:57;9.90;99.90
14397;DHT22;50653;47.810;13.022;2023-03-31T16:08:40;10.00;99.90
14397;DHT22;50653;47.810;13.022;2023-03-31T16:11:12;10.00;99.90
14397;DHT22;50653;47.810;13.022;2023-03-31T16:13:42;10.00;99.90
14397;DHT22;50653;47.810;13.022;2023-03-31T16:16:13;10.00;99.90
14397;DHT22;50653;47.810;13.022;2023-03-31T16:18:42;10.00;99.90
14397;DHT22;50653;47.810;13.022;2023-03-31T16:21:10;10.00;99.90
14397;DHT22;50653;47.810;13.022;2023-03-31T16:23:39;10.00;99.90
14397;DHT22;50653;47.810;13.022;2023-03-31T16:26:06;10.10;99.90
14397;DHT22;50653;47.810;13.022;2023-03-31T16:28:36;10.10;99.90
14397;DHT22;50653;47.810;13.022;2023-03-31T16:31:03;10.10;99.90
14397;DHT22;50653;47.810;13.022;2023-03-31T16:33:53;10.10;99.90
14397;DHT22;50653;47.810;13.022;2023-03-31T16:36:20;10.00;99.90
14397;DHT22;50653;47.810;13.022;2023-03-31T16:38:45;10.00;99.90
14397;DHT22;50653;47.810;13.022;2023-03-31T16:41:11;10.00;99.90
14397;DHT22;50653;47.810;13.022;2023-03-31T16:43:40;10.00;99.90
14397;DHT22;50653;47.810;13.022;2023-03-31T16:46:05;10.00;99.90
14397;DHT22;50653;47.810;13.022;2023-03-31T16:48:31;9.90;99.90
14397;DHT22;50653;47.810;13.022;2023-03-31T16:50:58;9.90;99.90
14397;DHT22;50653;47.810;13.022;2023-03-31T16:53:27;9.90;99.90
14397;DHT22;50653;47.810;13.022;2023-03-31T16:55:54;9.80;99.90
14397;DHT22;50653;47.810;13.022;2023-03-31T16:58:20;9.80;99.90
14397;DHT22;50653;47.810;13.022;2023-03-31T17:00:46;9.80;99.90
14397;DHT22;50653;47.810;13.022;2023-03-31T17:03:12;9.90;99.90
14397;DHT22;50653;47.810;13.022;2023-03-31T17:05:40;9.90;99.90
14397;DHT22;50653;47.810;13.022;2023-03-31T17:08:07;9.90;99.90
14397;DHT22;50653;47.810;13.022;2023-03-31T17:10:33;9.90;99.90
14397;DHT22;50653;47.810;13.022;2023-03-31T17:12:59;9.90;99.90
14397;DHT22;50653;47.810;13.022;2023-03-31T17:15:25;9.90;99.90
14397;DHT22;50653;47.810;13.022;2023-03-31T17:17:54;10.00;99.90
14397;DHT22;50653;47.810;13.022;2023-03-31T17:20:21;9.90;99.90
14397;DHT22;50653;47.810;13.022;2023-03-31T17:22:46;9.90;99.90
14397;DHT22;50653;47.810;13.022;2023-03-31T17:25:12;9.90;99.90
14397;DHT22;50653;47.810;13.022;2023-03-31T17:27:38;10.00;99.90
14397;DHT22;50653;47.810;13.022;2023-03-31T17:30:05;9.90;99.90
14397;DHT22;50653;47.810;13.022;2023-03-31T17:32:31;9.90;99.90
14397;DHT22;50653;47.810;13.022;2023-03-31T17:34:57;9.90;99.90
14397;DHT22;50653;47.810;13.022;2023-03-31T17:37:23;9.90;99.90
14397;DHT22;50653;47.810;13.022;2023-03-31T17:39:49;9.80;99.90
14397;DHT22;50653;47.810;13.022;2023-03-31T17:42:15;9.80;99.90
14397;DHT22;50653;47.810;13.022;2023-03-31T17:44:41;9.80;99.90
14397;DHT22;50653;47.810;13.022;2023-03-31T17:47:07;9.90;99.90
14397;DHT22;50653;47.810;13.022;2023-03-31T17:49:33;9.90;99.90
14397;DHT22;50653;47.810;13.022;2023-03-31T17:51:59;9.80;99.90
14397;DHT22;50653;47.810;13.022;2023-03-31T17:54:25;9.90;99.90
14397;DHT22;50653;47.810;13.022;2023-03-31T17:56:51;9.90;99.90
14397;DHT22;50653;47.810;13.022;2023-03-31T17:59:17;9.80;99.90
14397;DHT22;50653;47.810;13.022;2023-03-31T18:01:44;9.90;99.90